Time;durP1;ratioP1;P1;durP2;ratioP2;P2;SDS_P1;SDS_P2;PMS_P1;PMS_P2;Temp;Humidity;BMP_temperature;BMP_pressure;BME280_temperature;BME280_humidity;BME280_pressure;Samples;Min_cycle;Max_cycle;Signal;HPM_P1;HPM_P2
2021/10/13 00:02:25;;;;;;;3.72;2.72;;;14.20;96.70;;;;;;5086497;28;20416;-76
2021/10/13 00:04:55;;;;;;;7.15;2.97;;;14.10;96.70;;;;;;5103373;27;20035;-76
2021/10/13 00:07:23;;;;;;;7.78;3.08;;;14.00;96.70;;;;;;5114491;27;20039;-77
2021/10/13 00:09:51;;;;;;;4.95;3.08;;;14.10;96.70;;;;;;5104734;28;20547;-76
2021/10/13 00:12:19;;;;;;;5.47;3.05;;;14.20;96.70;;;;;;5088655;28;20553;-76
2021/10/13 00:14:47;;;;;;;4.82;3.17;;;14.10;96.70;;;;;;5084461;28;20036;-76
2021/10/13 00:17:17;;;;;;;7.35;3.22;;;14.10;96.70;;;;;;5098949;28;20127;-76
2021/10/13 00:19:46;;;;;;;5.82;3.60;;;14.10;96.70;;;;;;5098383;28;20778;-76
2021/10/13 00:22:14;;;;;;;7.35;3.28;;;14.10;96.70;;;;;;5095960;28;20055;-76
2021/10/13 00:24:42;;;;;;;6.00;3.55;;;14.10;96.70;;;;;;5111026;28;20071;-76
2021/10/13 00:27:10;;;;;;;6.55;3.25;;;14.00;96.70;;;;;;5096339;28;20644;-76
2021/10/13 00:29:38;;;;;;;6.68;3.85;;;13.90;96.70;;;;;;5094184;28;20079;-76
2021/10/13 00:32:07;;;;;;;6.25;3.28;;;13.90;96.70;;;;;;5105030;28;20039;-76
2021/10/13 00:34:36;;;;;;;5.53;3.28;;;13.90;96.70;;;;;;5104633;28;20519;-76
2021/10/13 00:37:04;;;;;;;5.57;3.30;;;13.80;96.70;;;;;;5088348;28;20382;-76
2021/10/13 00:39:32;;;;;;;5.72;2.90;;;13.70;96.70;;;;;;5089951;28;20456;-76
2021/10/13 00:42:01;;;;;;;4.75;3.22;;;13.70;96.70;;;;;;5098226;28;20603;-76
2021/10/13 00:44:29;;;;;;;4.65;3.55;;;13.60;96.70;;;;;;5101904;28;20054;-76
2021/10/13 00:47:00;;;;;;;6.38;3.55;;;13.70;96.70;;;;;;5080606;28;20052;-77
2021/10/13 00:49:28;;;;;;;9.00;3.65;;;13.60;96.70;;;;;;5082476;27;20569;-78
2021/10/13 00:52:00;;;;;;;5.03;3.95;;;13.60;96.70;;;;;;5100259;27;20130;-77
2021/10/13 00:54:28;;;;;;;5.72;3.40;;;13.70;96.70;;;;;;5079619;27;20505;-78
2021/10/13 00:56:56;;;;;;;6.43;3.30;;;13.70;96.70;;;;;;5085764;27;20509;-78
2021/10/13 00:59:25;;;;;;;5.18;3.72;;;13.70;96.70;;;;;;5096743;27;20054;-78
2021/10/13 01:01:57;;;;;;;5.28;3.15;;;13.60;96.70;;;;;;5096032;28;20130;-78
2021/10/13 01:04:40;;;;;;;5.47;3.63;;;13.60;96.70;;;;;;5098460;27;20046;-78
2021/10/13 01:07:22;;;;;;;7.28;3.58;;;13.50;96.70;;;;;;5097415;27;20049;-78
2021/10/13 01:09:58;;;;;;;4.13;3.05;;;13.50;96.70;;;;;;5092830;27;20047;-78
2021/10/13 01:12:39;;;;;;;4.88;3.22;;;13.50;96.70;;;;;;5106405;27;20050;-78
2021/10/13 01:15:15;;;;;;;5.40;3.28;;;13.40;96.70;;;;;;5090337;27;20473;-77
2021/10/13 01:17:52;;;;;;;6.30;3.50;;;13.30;96.70;;;;;;5106616;27;20047;-78
2021/10/13 01:20:29;;;;;;;;;;;13.40;96.70;;;;;;5080398;27;20047;-78
2021/10/13 01:23:18;;;;;;;4.75;3.22;;;13.20;96.70;;;;;;5108646;27;19934;-78
2021/10/13 01:25:49;;;;;;;7.03;3.78;;;13.10;96.70;;;;;;5094800;27;20038;-78
2021/10/13 01:28:23;;;;;;;6.90;3.90;;;13.20;96.70;;;;;;5098571;27;20054;-78
2021/10/13 01:30:57;;;;;;;5.38;3.50;;;13.20;96.70;;;;;;5093196;28;20070;-77
2021/10/13 01:33:30;;;;;;;7.80;3.80;;;13.10;96.70;;;;;;5090457;28;20247;-78
2021/10/13 01:36:03;;;;;;;5.32;3.78;;;13.10;96.70;;;;;;5093448;27;20118;-78
2021/10/13 01:38:37;;;;;;;5.93;3.65;;;13.10;96.70;;;;;;5090506;27;20054;-78
2021/10/13 01:41:08;;;;;;;5.97;3.08;;;13.20;96.70;;;;;;5117749;27;20047;-77
2021/10/13 01:43:42;;;;;;;4.20;3.30;;;13.20;96.70;;;;;;5088809;27;20616;-78
2021/10/13 01:46:12;;;;;;;5.32;3.50;;;13.10;96.70;;;;;;5074333;28;20098;-78
2021/10/13 01:48:41;;;;;;;8.35;3.33;;;13.10;96.70;;;;;;5082398;27;20062;-78
2021/10/13 01:51:12;;;;;;;6.45;3.70;;;13.00;96.70;;;;;;5094455;28;20382;-78
2021/10/13 01:53:42;;;;;;;7.53;3.40;;;12.90;96.70;;;;;;5088159;27;20051;-78
2021/10/13 01:56:13;;;;;;;5.80;3.35;;;12.90;96.70;;;;;;5072609;28;20051;-78
2021/10/13 01:58:45;;;;;;;5.50;3.50;;;12.80;96.70;;;;;;5063190;28;20402;-77
2021/10/13 02:01:16;;;;;;;5.75;3.47;;;12.80;96.70;;;;;;5067899;28;20131;-77
2021/10/13 02:03:46;;;;;;;5.22;3.20;;;12.70;96.70;;;;;;5070861;28;20101;-78
2021/10/13 02:06:36;;;;;;;6.28;3.50;;;12.70;96.70;;;;;;5067897;28;20529;-78
2021/10/13 02:09:05;;;;;;;6.03;3.28;;;12.60;96.70;;;;;;5071798;28;20051;-78
2021/10/13 02:11:35;;;;;;;5.72;3.33;;;12.50;96.70;;;;;;5071929;28;20334;-77
2021/10/13 02:14:07;;;;;;;5.35;2.78;;;12.50;96.70;;;;;;5057952;28;20056;-77
2021/10/13 02:16:36;;;;;;;5.57;2.90;;;12.60;96.70;;;;;;5073537;28;20047;-77
2021/10/13 02:19:06;;;;;;;5.22;2.83;;;12.60;96.70;;;;;;5085115;28;20045;-78
2021/10/13 02:21:37;;;;;;;5.88;3.20;;;12.50;96.70;;;;;;5069382;28;20370;-78
2021/10/13 02:24:07;;;;;;;5.45;3.08;;;12.50;96.70;;;;;;5073276;28;20660;-78
2021/10/13 02:26:42;;;;;;;7.07;3.38;;;12.50;96.70;;;;;;5079244;28;20044;-78
2021/10/13 02:29:14;;;;;;;5.97;3.58;;;12.50;96.70;;;;;;5074460;28;20132;-78
2021/10/13 02:31:43;;;;;;;4.82;3.15;;;12.40;96.70;;;;;;5066995;28;20048;-77
2021/10/13 02:34:12;;;;;;;4.90;3.20;;;12.40;96.70;;;;;;5050956;28;20529;-78
2021/10/13 02:36:41;;;;;;;6.63;3.40;;;12.50;96.70;;;;;;5070167;28;20044;-78
2021/10/13 02:39:09;;;;;;;4.55;3.00;;;12.60;96.70;;;;;;5086397;28;20044;-75
2021/10/13 02:41:38;;;;;;;4.65;3.13;;;12.70;96.70;;;;;;5084765;28;20036;-76
2021/10/13 02:44:07;;;;;;;4.35;3.63;;;12.60;96.70;;;;;;5068594;28;20044;-76
2021/10/13 02:46:41;;;;;;;4.70;3.00;;;12.70;96.70;;;;;;5071717;28;20043;-76
2021/10/13 02:49:18;;;;;;;4.75;3.35;;;12.70;96.70;;;;;;5075696;28;20556;-76
2021/10/13 02:51:51;;;;;;;5.50;3.05;;;12.70;96.70;;;;;;5075692;28;20046;-76
2021/10/13 02:54:25;;;;;;;6.30;3.35;;;12.50;96.70;;;;;;5068646;28;20044;-76
2021/10/13 02:56:56;;;;;;;3.13;2.60;;;12.40;96.70;;;;;;5106682;27;20256;-76
2021/10/13 02:59:33;;;;;;;6.60;3.75;;;12.40;96.70;;;;;;5105932;27;20462;-76
2021/10/13 03:02:06;;;;;;;4.80;3.00;;;12.40;96.70;;;;;;5096246;27;20537;-76
2021/10/13 03:04:40;;;;;;;5.45;2.83;;;12.30;96.70;;;;;;5114453;27;20042;-76
2021/10/13 03:07:11;;;;;;;6.10;3.17;;;12.20;96.70;;;;;;5078582;28;20047;-76
2021/10/13 03:09:45;;;;;;;4.07;2.72;;;12.30;96.70;;;;;;5096534;27;20047;-76
2021/10/13 03:12:15;;;;;;;6.07;3.28;;;12.40;96.70;;;;;;5090121;28;20051;-76
2021/10/13 03:14:44;;;;;;;5.60;3.00;;;12.40;96.70;;;;;;5095590;28;20043;-76
2021/10/13 03:17:18;;;;;;;4.40;3.10;;;12.50;96.70;;;;;;5090725;27;20511;-76
2021/10/13 03:19:48;;;;;;;6.25;3.40;;;12.40;96.70;;;;;;5098604;27;20039;-78
2021/10/13 03:22:18;;;;;;;6.38;3.40;;;12.30;96.70;;;;;;5086125;28;20528;-78
2021/10/13 03:24:46;;;;;;;4.07;2.70;;;12.40;96.70;;;;;;5077142;27;20050;-78
2021/10/13 03:27:14;;;;;;;4.78;2.72;;;12.30;96.70;;;;;;5090419;28;20071;-78
2021/10/13 03:29:42;;;;;;;4.43;3.10;;;12.30;96.70;;;;;;5094671;27;20408;-78
2021/10/13 03:32:11;;;;;;;4.10;2.95;;;12.30;96.70;;;;;;5088944;28;20039;-78
2021/10/13 03:34:41;;;;;;;4.38;3.00;;;12.30;96.70;;;;;;5081669;28;20974;-78
2021/10/13 03:37:09;;;;;;;5.88;3.22;;;12.20;96.70;;;;;;5089268;28;20046;-78
2021/10/13 03:39:37;;;;;;;7.45;3.20;;;12.20;96.70;;;;;;5078205;27;20050;-78
2021/10/13 03:42:06;;;;;;;4.60;2.97;;;12.20;96.70;;;;;;5105044;27;20036;-78
2021/10/13 03:44:34;;;;;;;4.40;2.90;;;12.20;96.70;;;;;;5112208;27;20039;-79
2021/10/13 03:47:02;;;;;;;4.55;3.08;;;12.10;96.70;;;;;;5082856;27;20046;-77
2021/10/13 03:49:30;;;;;;;4.93;3.15;;;12.10;96.70;;;;;;5113054;27;20070;-78
2021/10/13 03:52:00;;;;;;;4.15;2.78;;;12.00;96.70;;;;;;5075502;28;20616;-78
2021/10/13 03:54:28;;;;;;;4.60;2.83;;;12.00;96.70;;;;;;5112293;27;20600;-78
2021/10/13 03:56:56;;;;;;;4.68;3.25;;;11.90;96.70;;;;;;5108523;27;20059;-77
2021/10/13 03:59:24;;;;;;;7.18;2.97;;;11.80;96.70;;;;;;5091051;28;20470;-77
2021/10/13 04:01:52;;;;;;;5.03;3.03;;;11.80;96.70;;;;;;5111345;27;20035;-78
2021/10/13 04:04:21;;;;;;;5.32;2.78;;;11.80;96.70;;;;;;5094391;28;20513;-78
2021/10/13 04:06:49;;;;;;;4.20;3.17;;;11.80;96.70;;;;;;5088663;28;20051;-78
2021/10/13 04:09:19;;;;;;;6.38;3.30;;;11.80;96.70;;;;;;5106326;28;20047;-78
2021/10/13 04:11:47;;;;;;;6.72;2.80;;;11.80;96.70;;;;;;5109995;28;20522;-78
2021/10/13 04:14:15;;;;;;;4.82;3.58;;;11.80;96.70;;;;;;5073264;28;20058;-79
2021/10/13 04:16:43;;;;;;;5.72;3.05;;;11.80;96.70;;;;;;5088422;28;20134;-78
2021/10/13 04:19:11;;;;;;;6.25;3.15;;;11.80;96.70;;;;;;5104945;28;20059;-78
2021/10/13 04:21:39;;;;;;;5.50;3.28;;;11.80;96.70;;;;;;5088749;27;20475;-79
2021/10/13 04:24:08;;;;;;;5.25;3.28;;;11.80;96.70;;;;;;5083811;27;20046;-78
2021/10/13 04:26:38;;;;;;;7.30;3.50;;;11.70;96.70;;;;;;5077647;27;20058;-77
2021/10/13 04:29:06;;;;;;;4.25;2.72;;;11.70;96.70;;;;;;5083307;27;20101;-78
2021/10/13 04:31:34;;;;;;;6.88;3.40;;;11.70;96.70;;;;;;5109380;27;20054;-78
2021/10/13 04:34:02;;;;;;;5.63;3.22;;;11.70;96.70;;;;;;5088959;27;20058;-78
2021/10/13 04:36:30;;;;;;;5.63;3.30;;;11.70;96.70;;;;;;5118437;27;20111;-78
2021/10/13 04:39:00;;;;;;;3.50;2.70;;;11.60;96.70;;;;;;5091805;28;20588;-78
2021/10/13 04:41:28;;;;;;;3.92;3.13;;;11.70;96.70;;;;;;5092670;27;20037;-74
2021/10/13 04:43:58;;;;;;;4.95;3.00;;;11.80;96.70;;;;;;5091041;27;20035;-79
2021/10/13 04:46:26;;;;;;;5.07;3.30;;;11.70;96.70;;;;;;5099229;27;20127;-79
2021/10/13 04:48:54;;;;;;;5.55;3.15;;;11.70;96.70;;;;;;5112454;27;20089;-79
2021/10/13 04:51:22;;;;;;;5.75;3.10;;;11.70;96.70;;;;;;5088139;27;20142;-79
2021/10/13 04:53:50;;;;;;;5.25;3.80;;;11.60;96.70;;;;;;5100826;27;20035;-79
2021/10/13 04:56:19;;;;;;;6.18;3.90;;;11.50;96.70;;;;;;5103908;27;20081;-79
2021/10/13 04:58:47;;;;;;;6.55;3.20;;;11.50;96.70;;;;;;5086338;27;20101;-79
2021/10/13 05:01:17;;;;;;;6.43;3.20;;;11.50;96.70;;;;;;5094983;27;20126;-79
2021/10/13 05:03:45;;;;;;;6.00;3.35;;;11.40;96.70;;;;;;5091604;27;20071;-79
2021/10/13 05:06:13;;;;;;;6.47;3.00;;;11.40;96.70;;;;;;5101182;27;20051;-79
2021/10/13 05:08:41;;;;;;;4.82;2.90;;;11.60;96.70;;;;;;5085197;27;20043;-79
2021/10/13 05:11:09;;;;;;;5.43;2.80;;;11.60;96.70;;;;;;5087694;28;20528;-79
2021/10/13 05:13:38;;;;;;;5.60;2.75;;;11.40;96.70;;;;;;5097067;28;20039;-78
2021/10/13 05:16:06;;;;;;;4.95;3.28;;;11.40;96.70;;;;;;5079290;27;20039;-79
2021/10/13 05:18:35;;;;;;;5.82;2.95;;;11.40;96.70;;;;;;5100957;27;20119;-79
2021/10/13 05:21:04;;;;;;;5.78;3.10;;;11.40;96.70;;;;;;5091614;28;20044;-79
2021/10/13 05:23:32;;;;;;;7.00;3.22;;;11.40;96.70;;;;;;5101822;27;20039;-79
2021/10/13 05:26:00;;;;;;;6.43;2.88;;;11.30;96.70;;;;;;5112255;27;20047;-79
2021/10/13 05:28:28;;;;;;;3.83;2.60;;;11.30;96.70;;;;;;5093807;27;20377;-79
2021/10/13 05:30:56;;;;;;;7.53;4.07;;;11.30;96.70;;;;;;5099808;27;20569;-78
2021/10/13 05:33:25;;;;;;;9.88;4.25;;;11.30;96.70;;;;;;5082954;27;20035;-79
2021/10/13 05:35:54;;;;;;;6.05;4.35;;;11.20;96.70;;;;;;5092990;28;20058;-79
2021/10/13 05:38:23;;;;;;;8.30;4.70;;;11.10;96.70;;;;;;5098116;27;20070;-79
2021/10/13 05:40:51;;;;;;;7.57;4.43;;;11.10;96.70;;;;;;5084872;27;20050;-79
2021/10/13 05:43:20;;;;;;;7.43;4.13;;;11.10;96.70;;;;;;5089538;27;20067;-79
2021/10/13 05:45:48;;;;;;;7.43;4.43;;;11.00;96.70;;;;;;5095180;27;20035;-79
2021/10/13 05:48:16;;;;;;;7.32;4.22;;;11.00;96.70;;;;;;5100349;27;20468;-79
2021/10/13 05:50:44;;;;;;;6.28;4.63;;;11.10;96.70;;;;;;5092495;28;20149;-79
2021/10/13 05:53:14;;;;;;;7.38;4.53;;;11.20;96.70;;;;;;5094444;28;20490;-79
2021/10/13 05:55:43;;;;;;;9.80;4.40;;;11.20;96.70;;;;;;5089315;27;20270;-81
2021/10/13 05:58:13;;;;;;;8.02;4.30;;;11.20;96.70;;;;;;5097065;27;20136;-77
2021/10/13 06:00:44;;;;;;;7.43;4.00;;;11.20;96.70;;;;;;5087739;28;20489;-77
2021/10/13 06:03:12;;;;;;;7.47;4.35;;;11.20;96.70;;;;;;5081164;27;20500;-78
2021/10/13 06:05:42;;;;;;;9.73;3.92;;;11.20;96.70;;;;;;5073446;28;20468;-78
2021/10/13 06:08:10;;;;;;;9.80;4.43;;;11.30;96.70;;;;;;5089022;28;20051;-78
2021/10/13 06:10:40;;;;;;;7.85;4.40;;;11.30;96.70;;;;;;5092528;27;20039;-77
2021/10/13 06:13:08;;;;;;;10.50;4.28;;;11.30;96.70;;;;;;5104951;27;20039;-88
2021/10/13 06:15:37;;;;;;;8.07;4.45;;;11.30;96.70;;;;;;5120642;27;20043;-82
2021/10/13 06:18:07;;;;;;;7.70;4.68;;;11.30;96.70;;;;;;5090162;27;20161;-88
2021/10/13 06:20:35;;;;;;;8.23;4.50;;;11.50;96.70;;;;;;5097514;27;20506;-87
2021/10/13 06:23:03;;;;;;;11.93;5.80;;;11.70;96.70;;;;;;5110056;27;20510;-89
2021/10/13 06:25:32;;;;;;;9.90;4.72;;;11.70;96.70;;;;;;5093338;27;20044;-88
2021/10/13 06:28:02;;;;;;;9.10;4.47;;;11.60;96.70;;;;;;5079518;27;20047;-87
2021/10/13 06:30:33;;;;;;;13.15;5.82;;;11.70;96.70;;;;;;5090594;27;20044;-87
2021/10/13 06:33:01;;;;;;;9.23;4.20;;;11.80;96.70;;;;;;5093739;28;20118;-87
2021/10/13 06:35:29;;;;;;;7.35;3.45;;;11.80;96.70;;;;;;5090447;28;20046;-88
2021/10/13 06:37:57;;;;;;;8.60;4.85;;;11.80;96.70;;;;;;5093009;28;20054;-88
2021/10/13 06:40:25;;;;;;;8.63;3.83;;;11.80;96.70;;;;;;5094058;28;20603;-88
2021/10/13 06:42:54;;;;;;;6.25;3.42;;;11.80;96.70;;;;;;5094450;27;20683;-87
2021/10/13 06:45:24;;;;;;;5.45;3.95;;;11.90;96.70;;;;;;5086524;27;20145;-88
2021/10/13 06:47:52;;;;;;;5.85;3.50;;;11.80;96.70;;;;;;5095898;28;20047;-87
2021/10/13 06:50:20;;;;;;;6.90;3.75;;;11.80;96.70;;;;;;5089729;27;20047;-89
2021/10/13 06:52:48;;;;;;;5.80;3.40;;;11.90;96.70;;;;;;5085606;28;20054;-87
2021/10/13 06:55:16;;;;;;;9.48;4.57;;;12.00;96.70;;;;;;5093620;27;20044;-89
2021/10/13 06:57:45;;;;;;;11.98;3.85;;;11.90;96.70;;;;;;5085634;28;20051;-88
2021/10/13 07:00:14;;;;;;;7.43;4.05;;;11.90;96.70;;;;;;5086805;27;20048;-88
2021/10/13 07:02:44;;;;;;;7.20;3.47;;;12.00;96.70;;;;;;5098283;27;20109;-87
2021/10/13 07:05:13;;;;;;;6.35;3.90;;;12.10;96.70;;;;;;5110118;27;20135;-85
2021/10/13 07:07:42;;;;;;;5.55;4.18;;;12.10;96.70;;;;;;5098788;27;20047;-88
2021/10/13 07:10:10;;;;;;;6.00;3.85;;;12.00;96.70;;;;;;5099491;27;20059;-89
2021/10/13 07:12:39;;;;;;;7.68;4.82;;;12.00;96.70;;;;;;5086561;27;20591;-89
2021/10/13 07:15:08;;;;;;;7.22;4.15;;;12.00;96.70;;;;;;5086599;28;20052;-88
2021/10/13 07:17:37;;;;;;;7.75;4.13;;;12.00;96.70;;;;;;5090268;27;20044;-87
2021/10/13 07:20:08;;;;;;;7.10;4.05;;;12.00;96.70;;;;;;5122116;27;20116;-88
2021/10/13 07:22:36;;;;;;;6.07;4.05;;;12.10;96.70;;;;;;5097968;27;20055;-87
2021/10/13 07:25:06;;;;;;;6.05;4.20;;;12.20;96.70;;;;;;5098327;27;20039;-86
2021/10/13 07:27:35;;;;;;;11.98;4.70;;;12.30;96.70;;;;;;5082350;28;20417;-87
2021/10/13 07:30:04;;;;;;;9.35;4.68;;;12.40;96.70;;;;;;5087269;27;20084;-87
2021/10/13 07:32:35;;;;;;;9.50;4.75;;;12.60;96.70;;;;;;5082819;28;20077;-85
2021/10/13 07:35:22;;;;;;;8.85;5.05;;;12.70;96.70;;;;;;5120504;27;20042;-86
2021/10/13 07:37:52;;;;;;;8.57;5.80;;;12.70;96.70;;;;;;5097663;27;20103;-83
2021/10/13 07:40:21;;;;;;;8.88;6.43;;;12.80;96.70;;;;;;5097040;27;20043;-84
2021/10/13 07:42:50;;;;;;;8.65;5.68;;;12.80;96.70;;;;;;5092263;27;20087;-84
2021/10/13 07:45:18;;;;;;;10.57;5.30;;;12.70;96.70;;;;;;5098162;28;20104;-89
2021/10/13 07:47:47;;;;;;;9.40;6.00;;;12.90;96.70;;;;;;5087959;27;20042;-88
2021/10/13 07:50:16;;;;;;;9.38;5.25;;;13.00;96.70;;;;;;5080704;27;20124;-89
2021/10/13 07:52:46;;;;;;;7.55;5.18;;;13.10;96.70;;;;;;5104132;27;20047;-88
2021/10/13 07:55:14;;;;;;;9.70;5.68;;;13.10;96.70;;;;;;5081288;28;20058;-89
2021/10/13 07:57:42;;;;;;;8.77;6.22;;;13.20;96.70;;;;;;5095130;28;20052;-89
2021/10/13 08:00:12;;;;;;;6.70;4.90;;;13.30;96.70;;;;;;5080885;28;20424;-89
2021/10/13 08:02:45;;;;;;;5.82;4.85;;;13.40;96.70;;;;;;5092689;28;20119;-88
2021/10/13 08:05:14;;;;;;;7.78;4.80;;;13.50;96.70;;;;;;5094543;28;20039;-88
2021/10/13 08:07:42;;;;;;;6.60;4.15;;;13.60;96.70;;;;;;5094071;28;20540;-88
2021/10/13 08:10:12;;;;;;;4.85;3.55;;;13.70;96.70;;;;;;5095302;28;20593;-89
2021/10/13 08:12:40;;;;;;;9.20;4.90;;;13.90;96.70;;;;;;5088610;28;20052;-88
2021/10/13 08:15:10;;;;;;;6.45;4.25;;;14.00;96.70;;;;;;5089625;28;20039;-89
2021/10/13 08:17:38;;;;;;;5.65;4.13;;;14.10;96.70;;;;;;5090895;28;20038;-88
2021/10/13 08:20:08;;;;;;;9.57;4.65;;;14.20;96.70;;;;;;5099127;28;20130;-88
2021/10/13 08:22:36;;;;;;;6.97;4.28;;;14.30;96.70;;;;;;5086761;28;20088;-87
2021/10/13 08:25:06;;;;;;;4.63;3.65;;;14.30;96.70;;;;;;5084643;28;20044;-88
2021/10/13 08:27:36;;;;;;;5.60;3.97;;;14.40;96.70;;;;;;5096243;28;20644;-88
2021/10/13 08:30:05;;;;;;;7.65;4.18;;;14.40;96.70;;;;;;5091713;28;20044;-88
2021/10/13 08:32:33;;;;;;;6.15;4.28;;;14.50;96.70;;;;;;5078433;28;20424;-88
2021/10/13 08:35:02;;;;;;;4.93;3.88;;;14.50;96.70;;;;;;5086713;28;20067;-88
2021/10/13 08:37:30;;;;;;;9.13;4.82;;;14.60;96.70;;;;;;5100519;28;20924;-89
2021/10/13 08:39:58;;;;;;;6.82;4.15;;;14.70;96.70;;;;;;5100859;28;20039;-87
2021/10/13 08:42:27;;;;;;;5.13;3.88;;;14.80;96.70;;;;;;5091057;28;20142;-89
2021/10/13 08:44:57;;;;;;;8.10;3.95;;;14.80;96.70;;;;;;5076776;28;20039;-87
2021/10/13 08:47:26;;;;;;;6.25;3.97;;;14.90;96.70;;;;;;5083777;28;20039;-87
2021/10/13 08:49:56;;;;;;;4.82;3.70;;;15.00;96.70;;;;;;5086321;28;20040;-87
2021/10/13 08:52:24;;;;;;;5.93;4.25;;;15.10;96.70;;;;;;5097862;28;20040;-88
2021/10/13 08:54:55;;;;;;;6.53;4.55;;;15.20;96.70;;;;;;5078452;28;20175;-88
2021/10/13 08:57:26;;;;;;;6.88;4.55;;;15.20;96.70;;;;;;5083411;28;20058;-88
2021/10/13 08:59:56;;;;;;;6.90;3.72;;;15.30;96.70;;;;;;5073922;28;20088;-88
2021/10/13 09:02:42;;;;;;;9.20;4.38;;;15.40;96.70;;;;;;5088721;28;20505;-88
2021/10/13 09:05:12;;;;;;;5.97;4.30;;;15.50;96.70;;;;;;5090571;28;20047;-89
2021/10/13 09:07:49;;;;;;;7.10;4.60;;;15.60;96.70;;;;;;5081838;27;20039;-88
2021/10/13 09:10:27;;;;;;;6.15;3.70;;;15.70;96.70;;;;;;5099719;27;20039;-89
2021/10/13 09:12:56;;;;;;;9.70;4.50;;;15.80;96.70;;;;;;5100091;27;20134;-88
2021/10/13 09:15:28;;;;;;;11.07;5.18;;;15.90;96.70;;;;;;5106133;27;20039;-87
2021/10/13 09:17:59;;;;;;;5.50;4.15;;;16.10;96.70;;;;;;5089471;28;20042;-87
2021/10/13 09:20:29;;;;;;;7.60;5.05;;;16.10;96.70;;;;;;5096002;27;20568;-89
2021/10/13 09:23:07;;;;;;;7.13;5.05;;;16.30;96.70;;;;;;5098527;27;20039;-87
2021/10/13 09:25:36;;;;;;;8.05;4.32;;;16.40;96.70;;;;;;5103205;27;20043;-89
2021/10/13 09:28:05;;;;;;;6.93;4.45;;;16.50;96.70;;;;;;5088123;27;20055;-90
2021/10/13 09:30:39;;;;;;;5.80;4.25;;;16.60;96.70;;;;;;5093701;27;20051;-88
2021/10/13 09:33:12;;;;;;;6.93;5.10;;;16.70;96.70;;;;;;5100215;27;20547;-89
2021/10/13 09:35:46;;;;;;;6.72;4.78;;;16.80;96.70;;;;;;5085803;28;20053;-89
2021/10/13 09:38:17;;;;;;;7.70;5.15;;;16.80;96.70;;;;;;5092923;28;20039;-87
2021/10/13 09:40:47;;;;;;;7.22;5.25;;;17.00;96.70;;;;;;5095522;28;20039;-88
2021/10/13 09:43:33;;;;;;;9.85;4.70;;;17.10;96.70;;;;;;5080609;28;20562;-87
2021/10/13 09:46:06;;;;;;;7.70;5.57;;;17.20;96.70;;;;;;5097253;27;20039;-88
2021/10/13 09:48:36;;;;;;;9.30;4.55;;;17.20;96.70;;;;;;5092534;27;20054;-88
2021/10/13 09:51:16;;;;;;;6.00;4.22;;;17.30;96.70;;;;;;5095932;28;20074;-89
2021/10/13 09:53:46;;;;;;;6.25;4.45;;;17.40;96.70;;;;;;5092530;28;20074;-87
2021/10/13 09:56:29;;;;;;;5.28;3.60;;;17.50;96.70;;;;;;5091190;28;20625;-89
2021/10/13 09:59:11;;;;;;;7.15;3.17;;;17.70;96.70;;;;;;5097705;28;20111;-89
2021/10/13 10:01:43;;;;;;;5.75;3.13;;;17.80;96.70;;;;;;5092838;28;20062;-85
2021/10/13 10:04:16;;;;;;;6.07;3.17;;;17.90;96.70;;;;;;5099624;28;20584;-88
2021/10/13 10:06:50;;;;;;;7.63;3.58;;;17.90;96.70;;;;;;5089236;28;20680;-87
2021/10/13 10:09:20;;;;;;;14.35;3.15;;;17.90;96.70;;;;;;5079006;28;20043;-87
2021/10/13 10:11:50;;;;;;;2.67;1.85;;;18.00;96.70;;;;;;5082094;28;20064;-88
2021/10/13 10:14:43;;;;;;;3.13;2.10;;;18.10;96.70;;;;;;5103327;28;20432;-88
2021/10/13 10:17:34;;;;;;;4.55;2.00;;;18.30;96.70;;;;;;5101715;28;20051;-88
2021/10/13 10:20:03;;;;;;;4.22;1.63;;;18.60;96.70;;;;;;5081357;28;20519;-83
2021/10/13 10:22:45;;;;;;;7.53;2.10;;;18.70;95.90;;;;;;5086783;28;20494;-81
2021/10/13 10:25:14;;;;;;;3.80;1.92;;;18.90;94.10;;;;;;5087192;28;20102;-82
2021/10/13 10:27:42;;;;;;;4.32;1.85;;;19.10;92.50;;;;;;5089678;28;20492;-79
2021/10/13 10:30:18;;;;;;;3.38;1.67;;;19.10;93.70;;;;;;5093358;28;20097;-86
2021/10/13 10:33:15;;;;;;;3.60;1.70;;;19.30;93.10;;;;;;5100566;28;20112;-85
2021/10/13 10:35:44;;;;;;;5.03;1.92;;;19.50;92.70;;;;;;5100272;28;20063;-85
2021/10/13 10:38:17;;;;;;;2.95;1.60;;;19.50;92.80;;;;;;5081987;28;20055;-86
2021/10/13 10:41:10;;;;;;;2.00;1.40;;;19.60;92.10;;;;;;5055598;28;20047;-87
2021/10/13 10:43:38;;;;;;;3.40;1.40;;;19.60;88.70;;;;;;5027529;28;20049;-87
2021/10/13 10:46:06;;;;;;;3.30;1.60;;;19.70;88.70;;;;;;5022309;28;20098;-87
2021/10/13 10:48:48;;;;;;;3.28;1.88;;;19.80;88.80;;;;;;5033067;28;20067;-87
2021/10/13 10:51:16;;;;;;;1.92;1.60;;;19.90;88.70;;;;;;5037595;28;20045;-86
2021/10/13 10:53:45;;;;;;;2.60;1.48;;;19.90;89.00;;;;;;5038067;28;20149;-87
2021/10/13 10:56:25;;;;;;;3.05;1.67;;;20.00;88.80;;;;;;5041710;28;20057;-87
2021/10/13 10:59:08;;;;;;;3.90;1.70;;;20.10;89.70;;;;;;5042814;28;20040;-87
2021/10/13 11:01:36;;;;;;;2.00;1.60;;;20.40;88.30;;;;;;5027504;28;20128;-87
2021/10/13 11:04:08;;;;;;;3.83;1.92;;;20.50;87.00;;;;;;5043360;28;20269;-88
2021/10/13 11:06:38;;;;;;;4.22;2.47;;;20.40;87.40;;;;;;5036727;28;20086;-86
2021/10/13 11:09:08;;;;;;;2.20;1.77;;;20.40;87.90;;;;;;5036135;28;20160;-87
2021/10/13 11:11:39;;;;;;;3.20;1.70;;;20.50;87.90;;;;;;5044104;28;20390;-88
2021/10/13 11:14:10;;;;;;;3.22;2.03;;;20.80;88.10;;;;;;5080143;28;20303;-88
2021/10/13 11:16:45;;;;;;;3.63;1.92;;;20.90;87.30;;;;;;5080910;27;20046;-88
2021/10/13 11:19:19;;;;;;;2.65;1.80;;;20.90;86.80;;;;;;5079140;28;20040;-87
2021/10/13 11:21:55;;;;;;;6.22;2.25;;;21.00;86.30;;;;;;5081311;28;20040;-87
2021/10/13 11:24:23;;;;;;;3.67;1.58;;;21.10;86.00;;;;;;5088102;28;20147;-87
2021/10/13 11:26:51;;;;;;;4.55;2.20;;;21.20;85.70;;;;;;5076827;28;20505;-87
2021/10/13 11:29:22;;;;;;;5.07;2.25;;;21.30;86.00;;;;;;5098200;28;20067;-88
2021/10/13 11:32:03;;;;;;;4.68;2.10;;;21.40;85.40;;;;;;5082790;28;20044;-87
2021/10/13 11:34:33;;;;;;;3.35;1.80;;;21.30;85.40;;;;;;5084764;28;20044;-86
2021/10/13 11:37:03;;;;;;;2.53;1.98;;;21.40;85.90;;;;;;5096848;28;20512;-86
2021/10/13 11:39:33;;;;;;;2.60;1.85;;;21.50;85.70;;;;;;5074987;28;20040;-88
2021/10/13 11:42:02;;;;;;;2.95;1.52;;;21.70;85.40;;;;;;5080563;28;20044;-87
2021/10/13 11:44:31;;;;;;;1.27;1.13;;;21.60;84.70;;;;;;5071437;28;20048;-87
2021/10/13 11:47:02;;;;;;;2.17;1.15;;;21.60;84.70;;;;;;5076001;28;20158;-88
2021/10/13 11:49:31;;;;;;;1.50;1.20;;;21.70;84.90;;;;;;5088342;28;20040;-87
2021/10/13 11:52:11;;;;;;;2.40;1.45;;;21.60;83.90;;;;;;5093692;28;20023;-84
2021/10/13 11:54:41;;;;;;;2.17;1.58;;;21.90;84.40;;;;;;5086899;28;20041;-84
2021/10/13 11:57:09;;;;;;;2.25;1.30;;;22.00;83.20;;;;;;5109928;27;20084;-84
2021/10/13 11:59:38;;;;;;;8.27;2.35;;;22.00;81.80;;;;;;5097852;27;20059;-85
2021/10/13 12:02:14;;;;;;;3.28;1.63;;;22.00;81.80;;;;;;5097330;28;20043;-85
2021/10/13 12:04:51;;;;;;;10.93;1.67;;;22.10;82.50;;;;;;5091061;28;20076;-85
2021/10/13 12:07:23;;;;;;;4.95;1.35;;;22.20;81.70;;;;;;5097734;27;20039;-84
2021/10/13 12:10:00;;;;;;;1.67;0.93;;;22.30;82.10;;;;;;5081105;27;20043;-88
2021/10/13 12:12:29;;;;;;;1.95;0.85;;;22.30;81.60;;;;;;5077472;28;20499;-88
2021/10/13 12:14:57;;;;;;;5.32;1.13;;;22.20;81.30;;;;;;5094123;28;20540;-88
2021/10/13 12:17:30;;;;;;;2.33;1.02;;;22.30;81.20;;;;;;5094760;28;20108;-87
2021/10/13 12:20:00;;;;;;;1.30;1.02;;;22.30;81.20;;;;;;5080829;28;20048;-87
2021/10/13 12:22:45;;;;;;;5.13;1.88;;;22.20;81.40;;;;;;5082365;28;20504;-87
2021/10/13 12:25:27;;;;;;;2.38;1.10;;;22.30;82.40;;;;;;5083328;28;20047;-86
2021/10/13 12:27:57;;;;;;;2.33;1.40;;;22.40;82.40;;;;;;5118362;28;20036;-88
2021/10/13 12:30:31;;;;;;;1.85;1.00;;;22.50;81.50;;;;;;5090218;28;20043;-87
2021/10/13 12:33:09;;;;;;;3.22;1.25;;;22.60;81.40;;;;;;5097709;28;20055;-87
2021/10/13 12:35:38;;;;;;;1.42;1.10;;;22.60;81.10;;;;;;5094973;28;20044;-87
2021/10/13 12:38:12;;;;;;;2.78;1.20;;;22.60;82.40;;;;;;5092653;28;20078;-87
2021/10/13 12:40:40;;;;;;;1.67;1.20;;;22.60;82.30;;;;;;5090570;27;20035;-88
2021/10/13 12:43:23;;;;;;;1.35;0.75;;;22.70;81.40;;;;;;5085416;27;20035;-87
2021/10/13 12:45:51;;;;;;;2.42;0.98;;;22.70;82.00;;;;;;5110710;27;20126;-87
2021/10/13 12:48:24;;;;;;;2.08;1.00;;;22.80;82.60;;;;;;5105568;27;20126;-88
2021/10/13 12:51:05;;;;;;;2.70;0.95;;;22.90;81.10;;;;;;5092774;28;20092;-87
2021/10/13 12:53:36;;;;;;;2.22;1.17;;;22.90;82.00;;;;;;5110991;27;20047;-88
2021/10/13 12:56:06;;;;;;;17.23;3.58;;;22.80;81.70;;;;;;5083266;28;20430;-88
2021/10/13 12:58:34;;;;;;;16.45;3.53;;;22.80;82.30;;;;;;5100114;28;20493;-87
2021/10/13 13:01:03;;;;;;;18.60;2.85;;;22.80;82.70;;;;;;5098739;28;20501;-89
2021/10/13 13:03:31;;;;;;;4.13;1.63;;;22.90;83.90;;;;;;5092329;28;20065;-87
2021/10/13 13:05:59;;;;;;;5.82;1.30;;;22.90;82.90;;;;;;5102919;28;20054;-86